Startpagina
METAR-TAF:

METAR-TAF

Vliegvelden :

Vliegveld Craiova

Craiova, Roemenië

breedte: 44-14N, lengte: 023-52E, hoogte: 192 m

Actueel weer

Dit bericht is 20 minuten geleden gemaakt, om 10:00 UTC
Wind 4 kt uit het zuiden, variërend tussen het zuidoosten en het zuidzuidwesten
Temperatuur 14°C
Vochtigheid 55%
Druk 1017 hPa
Zicht 10 km of meer
geen wolken onder 1500 m en geen cumulonimbus

METAR: LRCV 191000Z 17004KT 140V210 CAVOK 14/05 Q1017

Tijdstip: 12:20 (10:20 UTC)

Verwachting

Dit bericht is 2 uur en het 20 minuten geleden gemaakt, om 08:00 UTC
Verwachting geldig van 19 om 09 UTC tot 19 om 18 UTC
Wind 4 kt uit variabele richting
Zicht 10 km of meer
geen wolken onder 1500 m en geen cumulonimbus
Tijdelijke
van 19 om 11 UTC tot 19 om 16 UTC
Weinig wolken op 4500 ft, Cumulonimbus.

TAF: LRCV 190800Z 1909/1918 VRB04KT CAVOK TEMPO 1911/1916 FEW045CB

Waarnemingen en weersverwachtingen van meer dan 4000 vliegvelden (METAR en TAF).

De beschikbare stations zijn de gele en rode punten op de kaart.

Ga met uw muis naar het station om de naam te zien.

Klik dan om waarnemingen en weersverwachtingen te zien.

kaart wijzigen: klik op de groene knoppen met een zwart kruis om in te zoomen, op de groene knop met een streepje om uit te zoomen of op de groene pijlen voor aangrenzende kaarten.


METAR-TAF: